sensor_id;sensor_type;location;lat;lon;timestamp;P1;durP1;ratioP1;P2;durP2;ratioP2
27367;SDS011;14839;48.106;11.618;2023-12-20T04:03:58;0.70;;;0.30;;
27367;SDS011;14839;48.106;11.618;2023-12-20T04:06:24;0.40;;;0.20;;
27367;SDS011;14839;48.106;11.618;2023-12-20T04:08:50;0.90;;;0.57;;
27367;SDS011;14839;48.106;11.618;2023-12-20T04:11:15;0.30;;;0.20;;
27367;SDS011;14839;48.106;11.618;2023-12-20T04:13:41;0.40;;;0.30;;
27367;SDS011;14839;48.106;11.618;2023-12-20T04:16:07;0.40;;;0.20;;
27367;SDS011;14839;48.106;11.618;2023-12-20T04:18:32;0.60;;;0.30;;
27367;SDS011;14839;48.106;11.618;2023-12-20T04:20:58;0.30;;;0.23;;
27367;SDS011;14839;48.106;11.618;2023-12-20T04:23:23;0.77;;;0.20;;
27367;SDS011;14839;48.106;11.618;2023-12-20T04:25:49;0.50;;;0.40;;
27367;SDS011;14839;48.106;11.618;2023-12-20T04:28:14;0.30;;;0.30;;
27367;SDS011;14839;48.106;11.618;2023-12-20T04:30:41;0.30;;;0.30;;
27367;SDS011;14839;48.106;11.618;2023-12-20T04:33:07;0.60;;;0.37;;
27367;SDS011;14839;48.106;11.618;2023-12-20T04:35:33;0.30;;;0.30;;
27367;SDS011;14839;48.106;11.618;2023-12-20T04:37:58;0.50;;;0.30;;
27367;SDS011;14839;48.106;11.618;2023-12-20T04:40:24;0.40;;;0.30;;
27367;SDS011;14839;48.106;11.618;2023-12-20T04:42:49;0.30;;;0.30;;
27367;SDS011;14839;48.106;11.618;2023-12-20T04:45:15;0.83;;;0.40;;
27367;SDS011;14839;48.106;11.618;2023-12-20T04:47:42;0.60;;;0.47;;
27367;SDS011;14839;48.106;11.618;2023-12-20T04:50:07;0.60;;;0.30;;
27367;SDS011;14839;48.106;11.618;2023-12-20T04:52:34;0.57;;;0.33;;
27367;SDS011;14839;48.106;11.618;2023-12-20T04:55:00;0.40;;;0.30;;
27367;SDS011;14839;48.106;11.618;2023-12-20T04:57:26;0.83;;;0.37;;
27367;SDS011;14839;48.106;11.618;2023-12-20T04:59:52;0.90;;;0.50;;
27367;SDS011;14839;48.106;11.618;2023-12-20T05:02:17;0.80;;;0.50;;
27367;SDS011;14839;48.106;11.618;2023-12-20T05:04:45;0.80;;;0.63;;
27367;SDS011;14839;48.106;11.618;2023-12-20T05:07:11;1.23;;;0.57;;
27367;SDS011;14839;48.106;11.618;2023-12-20T05:09:36;0.43;;;0.40;;
27367;SDS011;14839;48.106;11.618;2023-12-20T05:12:02;0.80;;;0.47;;
27367;SDS011;14839;48.106;11.618;2023-12-20T05:14:28;1.57;;;0.67;;
27367;SDS011;14839;48.106;11.618;2023-12-20T05:16:53;1.00;;;0.60;;
27367;SDS011;14839;48.106;11.618;2023-12-20T05:19:19;0.87;;;0.60;;
27367;SDS011;14839;48.106;11.618;2023-12-20T05:21:45;2.87;;;0.80;;
27367;SDS011;14839;48.106;11.618;2023-12-20T05:24:10;0.73;;;0.60;;
27367;SDS011;14839;48.106;11.618;2023-12-20T05:26:36;0.63;;;0.40;;
27367;SDS011;14839;48.106;11.618;2023-12-20T05:29:01;2.83;;;0.80;;
27367;SDS011;14839;48.106;11.618;2023-12-20T05:31:27;1.20;;;0.90;;
27367;SDS011;14839;48.106;11.618;2023-12-20T05:33:52;1.10;;;0.50;;
27367;SDS011;14839;48.106;11.618;2023-12-20T05:36:18;0.77;;;0.60;;
27367;SDS011;14839;48.106;11.618;2023-12-20T05:38:43;1.07;;;0.50;;
27367;SDS011;14839;48.106;11.618;2023-12-20T05:41:09;0.87;;;0.60;;
27367;SDS011;14839;48.106;11.618;2023-12-20T05:43:35;0.77;;;0.43;;
27367;SDS011;14839;48.106;11.618;2023-12-20T05:46:00;2.43;;;0.73;;
27367;SDS011;14839;48.106;11.618;2023-12-20T05:48:26;0.80;;;0.60;;
27367;SDS011;14839;48.106;11.618;2023-12-20T05:50:52;1.10;;;0.63;;
27367;SDS011;14839;48.106;11.618;2023-12-20T05:53:18;0.50;;;0.50;;
27367;SDS011;14839;48.106;11.618;2023-12-20T05:55:43;0.97;;;0.57;;
27367;SDS011;14839;48.106;11.618;2023-12-20T05:58:09;0.80;;;0.50;;
27367;SDS011;14839;48.106;11.618;2023-12-20T06:00:34;0.93;;;0.70;;
27367;SDS011;14839;48.106;11.618;2023-12-20T06:03:00;1.23;;;0.57;;
27367;SDS011;14839;48.106;11.618;2023-12-20T06:05:25;2.00;;;0.70;;
27367;SDS011;14839;48.106;11.618;2023-12-20T06:07:51;0.60;;;0.53;;
27367;SDS011;14839;48.106;11.618;2023-12-20T06:10:17;1.00;;;0.57;;
27367;SDS011;14839;48.106;11.618;2023-12-20T06:12:43;0.77;;;0.50;;
27367;SDS011;14839;48.106;11.618;2023-12-20T06:15:08;0.87;;;0.50;;
27367;SDS011;14839;48.106;11.618;2023-12-20T06:17:34;1.80;;;0.50;;
27367;SDS011;14839;48.106;11.618;2023-12-20T06:20:00;0.50;;;0.50;;
27367;SDS011;14839;48.106;11.618;2023-12-20T06:22:26;1.67;;;0.63;;
27367;SDS011;14839;48.106;11.618;2023-12-20T06:24:51;1.33;;;0.70;;
27367;SDS011;14839;48.106;11.618;2023-12-20T06:27:17;1.23;;;0.70;;
27367;SDS011;14839;48.106;11.618;2023-12-20T06:29:42;1.27;;;0.50;;
27367;SDS011;14839;48.106;11.618;2023-12-20T06:32:09;0.70;;;0.50;;
27367;SDS011;14839;48.106;11.618;2023-12-20T06:34:35;1.80;;;0.63;;
27367;SDS011;14839;48.106;11.618;2023-12-20T06:37:01;0.43;;;0.30;;
27367;SDS011;14839;48.106;11.618;2023-12-20T06:39:26;0.43;;;0.40;;
27367;SDS011;14839;48.106;11.618;2023-12-20T06:41:53;0.50;;;0.40;;
27367;SDS011;14839;48.106;11.618;2023-12-20T06:44:18;1.93;;;0.70;;
27367;SDS011;14839;48.106;11.618;2023-12-20T06:46:44;1.43;;;0.63;;
27367;SDS011;14839;48.106;11.618;2023-12-20T06:49:09;0.73;;;0.70;;
27367;SDS011;14839;48.106;11.618;2023-12-20T06:51:35;1.07;;;0.60;;
27367;SDS011;14839;48.106;11.618;2023-12-20T06:54:01;0.60;;;0.40;;
27367;SDS011;14839;48.106;11.618;2023-12-20T06:56:27;0.53;;;0.47;;
27367;SDS011;14839;48.106;11.618;2023-12-20T06:58:53;0.80;;;0.53;;
27367;SDS011;14839;48.106;11.618;2023-12-20T07:01:18;1.37;;;0.50;;
27367;SDS011;14839;48.106;11.618;2023-12-20T07:03:44;1.30;;;0.60;;
27367;SDS011;14839;48.106;11.618;2023-12-20T07:06:09;0.90;;;0.53;;
27367;SDS011;14839;48.106;11.618;2023-12-20T07:08:35;3.07;;;0.50;;
27367;SDS011;14839;48.106;11.618;2023-12-20T07:11:00;0.70;;;0.33;;
27367;SDS011;14839;48.106;11.618;2023-12-20T07:13:26;0.50;;;0.43;;
27367;SDS011;14839;48.106;11.618;2023-12-20T07:15:52;0.40;;;0.33;;
27367;SDS011;14839;48.106;11.618;2023-12-20T07:18:17;2.53;;;0.37;;
27367;SDS011;14839;48.106;11.618;2023-12-20T07:20:43;0.53;;;0.30;;
27367;SDS011;14839;48.106;11.618;2023-12-20T07:23:08;0.30;;;0.30;;
27367;SDS011;14839;48.106;11.618;2023-12-20T07:25:34;0.70;;;0.57;;
27367;SDS011;14839;48.106;11.618;2023-12-20T07:28:00;0.93;;;0.50;;
27367;SDS011;14839;48.106;11.618;2023-12-20T07:30:25;0.53;;;0.30;;
27367;SDS011;14839;48.106;11.618;2023-12-20T07:32:51;0.30;;;0.30;;
27367;SDS011;14839;48.106;11.618;2023-12-20T07:35:17;0.40;;;0.30;;
27367;SDS011;14839;48.106;11.618;2023-12-20T07:37:43;0.83;;;0.40;;
27367;SDS011;14839;48.106;11.618;2023-12-20T07:40:09;0.53;;;0.37;;
27367;SDS011;14839;48.106;11.618;2023-12-20T07:42:35;1.30;;;0.40;;
27367;SDS011;14839;48.106;11.618;2023-12-20T07:45:00;1.13;;;0.37;;
27367;SDS011;14839;48.106;11.618;2023-12-20T07:47:26;0.30;;;0.30;;
27367;SDS011;14839;48.106;11.618;2023-12-20T07:49:52;1.57;;;0.87;;
27367;SDS011;14839;48.106;11.618;2023-12-20T07:52:17;1.40;;;0.50;;
27367;SDS011;14839;48.106;11.618;2023-12-20T07:54:44;0.80;;;0.40;;
27367;SDS011;14839;48.106;11.618;2023-12-20T07:57:10;0.40;;;0.40;;
27367;SDS011;14839;48.106;11.618;2023-12-20T07:59:36;0.50;;;0.37;;
27367;SDS011;14839;48.106;11.618;2023-12-20T08:02:02;1.20;;;0.53;;
27367;SDS011;14839;48.106;11.618;2023-12-20T08:04:27;0.50;;;0.30;;
27367;SDS011;14839;48.106;11.618;2023-12-20T08:06:53;0.57;;;0.30;;
27367;SDS011;14839;48.106;11.618;2023-12-20T08:09:18;0.73;;;0.40;;
27367;SDS011;14839;48.106;11.618;2023-12-20T08:11:47;1.50;;;0.37;;
27367;SDS011;14839;48.106;11.618;2023-12-20T08:14:13;2.20;;;0.60;;
27367;SDS011;14839;48.106;11.618;2023-12-20T08:16:40;0.70;;;0.40;;
27367;SDS011;14839;48.106;11.618;2023-12-20T08:19:06;0.50;;;0.40;;
27367;SDS011;14839;48.106;11.618;2023-12-20T08:21:32;4.13;;;0.30;;
27367;SDS011;14839;48.106;11.618;2023-12-20T08:23:58;0.60;;;0.33;;
27367;SDS011;14839;48.106;11.618;2023-12-20T08:26:25;0.73;;;0.47;;
27367;SDS011;14839;48.106;11.618;2023-12-20T08:28:51;0.60;;;0.27;;
27367;SDS011;14839;48.106;11.618;2023-12-20T08:31:17;0.47;;;0.30;;
27367;SDS011;14839;48.106;11.618;2023-12-20T08:33:46;0.80;;;0.30;;
27367;SDS011;14839;48.106;11.618;2023-12-20T08:36:13;2.53;;;0.60;;
27367;SDS011;14839;48.106;11.618;2023-12-20T08:38:39;0.60;;;0.30;;
27367;SDS011;14839;48.106;11.618;2023-12-20T08:41:06;0.90;;;0.40;;
27367;SDS011;14839;48.106;11.618;2023-12-20T08:43:32;0.80;;;0.50;;
27367;SDS011;14839;48.106;11.618;2023-12-20T08:45:58;1.97;;;0.60;;
27367;SDS011;14839;48.106;11.618;2023-12-20T08:48:24;1.03;;;0.53;;
27367;SDS011;14839;48.106;11.618;2023-12-20T08:50:50;0.40;;;0.40;;
27367;SDS011;14839;48.106;11.618;2023-12-20T08:53:17;0.30;;;0.20;;
27367;SDS011;14839;48.106;11.618;2023-12-20T08:55:43;1.40;;;0.40;;
27367;SDS011;14839;48.106;11.618;2023-12-20T08:58:09;1.17;;;0.33;;
27367;SDS011;14839;48.106;11.618;2023-12-20T09:00:35;0.83;;;0.57;;
27367;SDS011;14839;48.106;11.618;2023-12-20T09:03:01;0.57;;;0.30;;
27367;SDS011;14839;48.106;11.618;2023-12-20T09:05:27;0.33;;;0.30;;
27367;SDS011;14839;48.106;11.618;2023-12-20T09:07:53;0.20;;;0.17;;
27367;SDS011;14839;48.106;11.618;2023-12-20T09:10:19;0.30;;;0.20;;
27367;SDS011;14839;48.106;11.618;2023-12-20T09:12:50;0.50;;;0.30;;
27367;SDS011;14839;48.106;11.618;2023-12-20T09:15:20;0.50;;;0.30;;
27367;SDS011;14839;48.106;11.618;2023-12-20T09:17:45;2.00;;;0.40;;
27367;SDS011;14839;48.106;11.618;2023-12-20T09:20:11;0.80;;;0.40;;
27367;SDS011;14839;48.106;11.618;2023-12-20T09:22:38;0.50;;;0.40;;
27367;SDS011;14839;48.106;11.618;2023-12-20T09:25:04;0.60;;;0.40;;
27367;SDS011;14839;48.106;11.618;2023-12-20T09:27:30;0.37;;;0.30;;
27367;SDS011;14839;48.106;11.618;2023-12-20T09:29:56;0.73;;;0.40;;
27367;SDS011;14839;48.106;11.618;2023-12-20T09:32:21;1.17;;;0.60;;
27367;SDS011;14839;48.106;11.618;2023-12-20T09:34:47;0.50;;;0.30;;
27367;SDS011;14839;48.106;11.618;2023-12-20T09:37:13;0.40;;;0.40;;
27367;SDS011;14839;48.106;11.618;2023-12-20T09:39:39;1.03;;;0.33;;
27367;SDS011;14839;48.106;11.618;2023-12-20T09:42:05;0.30;;;0.30;;
27367;SDS011;14839;48.106;11.618;2023-12-20T09:44:32;0.20;;;0.20;;
27367;SDS011;14839;48.106;11.618;2023-12-20T09:46:59;0.50;;;0.40;;
27367;SDS011;14839;48.106;11.618;2023-12-20T09:49:28;0.33;;;0.23;;
27367;SDS011;14839;48.106;11.618;2023-12-20T09:51:55;0.67;;;0.30;;
27367;SDS011;14839;48.106;11.618;2023-12-20T09:54:22;0.30;;;0.13;;
27367;SDS011;14839;48.106;11.618;2023-12-20T09:56:48;0.27;;;0.17;;
27367;SDS011;14839;48.106;11.618;2023-12-20T09:59:14;0.30;;;0.20;;
27367;SDS011;14839;48.106;11.618;2023-12-20T10:01:40;0.33;;;0.23;;
27367;SDS011;14839;48.106;11.618;2023-12-20T10:04:08;0.40;;;0.40;;
27367;SDS011;14839;48.106;11.618;2023-12-20T10:06:39;0.33;;;0.30;;
27367;SDS011;14839;48.106;11.618;2023-12-20T10:09:11;1.13;;;0.40;;
27367;SDS011;14839;48.106;11.618;2023-12-20T10:11:37;0.57;;;0.40;;
27367;SDS011;14839;48.106;11.618;2023-12-20T10:14:04;0.70;;;0.33;;
27367;SDS011;14839;48.106;11.618;2023-12-20T10:16:33;2.53;;;0.40;;
27367;SDS011;14839;48.106;11.618;2023-12-20T10:18:59;0.57;;;0.37;;
27367;SDS011;14839;48.106;11.618;2023-12-20T10:21:26;0.60;;;0.40;;
27367;SDS011;14839;48.106;11.618;2023-12-20T10:23:53;0.30;;;0.30;;
27367;SDS011;14839;48.106;11.618;2023-12-20T10:26:23;0.63;;;0.60;;
27367;SDS011;14839;48.106;11.618;2023-12-20T10:28:54;0.73;;;0.40;;
27367;SDS011;14839;48.106;11.618;2023-12-20T10:31:30;2.50;;;0.53;;
27367;SDS011;14839;48.106;11.618;2023-12-20T10:33:57;0.50;;;0.47;;
27367;SDS011;14839;48.106;11.618;2023-12-20T10:36:26;0.37;;;0.37;;
27367;SDS011;14839;48.106;11.618;2023-12-20T10:38:54;0.40;;;0.40;;
27367;SDS011;14839;48.106;11.618;2023-12-20T10:41:28;0.50;;;0.40;;
27367;SDS011;14839;48.106;11.618;2023-12-20T10:43:59;0.40;;;0.40;;
27367;SDS011;14839;48.106;11.618;2023-12-20T10:46:26;0.50;;;0.50;;
27367;SDS011;14839;48.106;11.618;2023-12-20T10:48:53;0.43;;;0.27;;
27367;SDS011;14839;48.106;11.618;2023-12-20T10:51:20;0.60;;;0.27;;
27367;SDS011;14839;48.106;11.618;2023-12-20T10:53:47;0.30;;;0.30;;
27367;SDS011;14839;48.106;11.618;2023-12-20T10:56:15;0.40;;;0.30;;
27367;SDS011;14839;48.106;11.618;2023-12-20T10:58:48;0.50;;;0.30;;
27367;SDS011;14839;48.106;11.618;2023-12-20T11:01:15;0.40;;;0.30;;
27367;SDS011;14839;48.106;11.618;2023-12-20T11:03:44;0.40;;;0.30;;
27367;SDS011;14839;48.106;11.618;2023-12-20T11:09:06;0.30;;;0.20;;
27367;SDS011;14839;48.106;11.618;2023-12-20T11:12:08;0.30;;;0.30;;
27367;SDS011;14839;48.106;11.618;2023-12-20T11:17:15;0.47;;;0.40;;
27367;SDS011;14839;48.106;11.618;2023-12-20T11:22:26;0.53;;;0.37;;
27367;SDS011;14839;48.106;11.618;2023-12-20T11:24:58;0.80;;;0.47;;
27367;SDS011;14839;48.106;11.618;2023-12-20T11:27:34;0.50;;;0.40;;
27367;SDS011;14839;48.106;11.618;2023-12-20T11:30:00;0.80;;;0.50;;
27367;SDS011;14839;48.106;11.618;2023-12-20T11:32:31;0.53;;;0.40;;
27367;SDS011;14839;48.106;11.618;2023-12-20T11:35:01;0.43;;;0.43;;
27367;SDS011;14839;48.106;11.618;2023-12-20T11:37:43;1.27;;;0.40;;
27367;SDS011;14839;48.106;11.618;2023-12-20T11:40:13;2.47;;;0.40;;
27367;SDS011;14839;48.106;11.618;2023-12-20T11:42:40;1.07;;;0.50;;
27367;SDS011;14839;48.106;11.618;2023-12-20T11:45:11;0.80;;;0.50;;
27367;SDS011;14839;48.106;11.618;2023-12-20T11:47:40;4.77;;;0.57;;
27367;SDS011;14839;48.106;11.618;2023-12-20T11:50:11;0.90;;;0.60;;
27367;SDS011;14839;48.106;11.618;2023-12-20T11:52:37;0.70;;;0.50;;
27367;SDS011;14839;48.106;11.618;2023-12-20T11:55:03;0.63;;;0.50;;
27367;SDS011;14839;48.106;11.618;2023-12-20T11:57:29;0.60;;;0.40;;
27367;SDS011;14839;48.106;11.618;2023-12-20T11:59:55;0.57;;;0.50;;
27367;SDS011;14839;48.106;11.618;2023-12-20T12:02:21;1.00;;;0.70;;
27367;SDS011;14839;48.106;11.618;2023-12-20T12:04:48;0.77;;;0.60;;
27367;SDS011;14839;48.106;11.618;2023-12-20T12:07:15;1.00;;;0.50;;
27367;SDS011;14839;48.106;11.618;2023-12-20T12:09:41;1.03;;;0.53;;
27367;SDS011;14839;48.106;11.618;2023-12-20T12:12:08;2.87;;;0.80;;
27367;SDS011;14839;48.106;11.618;2023-12-20T12:14:33;0.80;;;0.67;;
27367;SDS011;14839;48.106;11.618;2023-12-20T12:17:01;0.60;;;0.40;;
27367;SDS011;14839;48.106;11.618;2023-12-20T12:19:28;0.50;;;0.40;;
27367;SDS011;14839;48.106;11.618;2023-12-20T12:22:07;1.00;;;0.50;;
27367;SDS011;14839;48.106;11.618;2023-12-20T12:24:41;0.77;;;0.60;;
27367;SDS011;14839;48.106;11.618;2023-12-20T12:27:08;1.00;;;0.80;;
27367;SDS011;14839;48.106;11.618;2023-12-20T12:29:34;0.90;;;0.50;;
27367;SDS011;14839;48.106;11.618;2023-12-20T12:32:01;2.03;;;0.70;;
27367;SDS011;14839;48.106;11.618;2023-12-20T12:34:31;0.63;;;0.43;;
27367;SDS011;14839;48.106;11.618;2023-12-20T12:36:57;3.70;;;0.60;;
27367;SDS011;14839;48.106;11.618;2023-12-20T12:39:23;2.07;;;0.50;;
27367;SDS011;14839;48.106;11.618;2023-12-20T12:41:52;0.83;;;0.57;;
27367;SDS011;14839;48.106;11.618;2023-12-20T12:44:18;1.17;;;0.53;;
27367;SDS011;14839;48.106;11.618;2023-12-20T12:46:45;0.70;;;0.53;;
27367;SDS011;14839;48.106;11.618;2023-12-20T12:49:11;0.60;;;0.40;;
27367;SDS011;14839;48.106;11.618;2023-12-20T12:51:37;0.70;;;0.60;;
27367;SDS011;14839;48.106;11.618;2023-12-20T12:54:02;0.93;;;0.70;;
27367;SDS011;14839;48.106;11.618;2023-12-20T12:56:28;1.60;;;0.50;;
27367;SDS011;14839;48.106;11.618;2023-12-20T12:58:54;1.17;;;0.70;;
27367;SDS011;14839;48.106;11.618;2023-12-20T13:01:20;1.00;;;0.60;;
27367;SDS011;14839;48.106;11.618;2023-12-20T13:03:45;0.70;;;0.60;;
27367;SDS011;14839;48.106;11.618;2023-12-20T13:06:12;1.07;;;0.70;;
27367;SDS011;14839;48.106;11.618;2023-12-20T13:08:38;0.57;;;0.50;;
27367;SDS011;14839;48.106;11.618;2023-12-20T13:11:04;0.67;;;0.47;;
27367;SDS011;14839;48.106;11.618;2023-12-20T13:13:30;0.67;;;0.40;;
27367;SDS011;14839;48.106;11.618;2023-12-20T13:15:56;0.50;;;0.33;;
27367;SDS011;14839;48.106;11.618;2023-12-20T13:18:22;1.23;;;1.07;;
27367;SDS011;14839;48.106;11.618;2023-12-20T13:20:48;0.80;;;0.60;;
27367;SDS011;14839;48.106;11.618;2023-12-20T13:23:14;1.33;;;1.07;;
27367;SDS011;14839;48.106;11.618;2023-12-20T13:25:40;0.93;;;0.70;;
27367;SDS011;14839;48.106;11.618;2023-12-20T13:28:06;1.07;;;0.87;;
27367;SDS011;14839;48.106;11.618;2023-12-20T13:30:33;0.60;;;0.50;;
27367;SDS011;14839;48.106;11.618;2023-12-20T13:32:59;1.00;;;0.70;;
27367;SDS011;14839;48.106;11.618;2023-12-20T13:35:24;0.83;;;0.50;;
27367;SDS011;14839;48.106;11.618;2023-12-20T13:37:50;1.77;;;0.60;;
27367;SDS011;14839;48.106;11.618;2023-12-20T13:40:16;2.33;;;0.70;;
27367;SDS011;14839;48.106;11.618;2023-12-20T13:42:41;0.93;;;0.77;;
27367;SDS011;14839;48.106;11.618;2023-12-20T13:45:07;1.93;;;1.03;;
27367;SDS011;14839;48.106;11.618;2023-12-20T13:47:33;5.43;;;0.70;;
27367;SDS011;14839;48.106;11.618;2023-12-20T13:49:59;0.90;;;0.70;;
27367;SDS011;14839;48.106;11.618;2023-12-20T13:52:24;1.20;;;0.60;;
27367;SDS011;14839;48.106;11.618;2023-12-20T13:54:50;1.00;;;0.80;;
27367;SDS011;14839;48.106;11.618;2023-12-20T13:57:15;1.83;;;0.87;;
27367;SDS011;14839;48.106;11.618;2023-12-20T13:59:41;0.93;;;0.70;;
27367;SDS011;14839;48.106;11.618;2023-12-20T14:02:07;1.20;;;0.77;;
27367;SDS011;14839;48.106;11.618;2023-12-20T14:04:32;2.10;;;1.07;;
27367;SDS011;14839;48.106;11.618;2023-12-20T14:06:58;1.63;;;0.60;;
27367;SDS011;14839;48.106;11.618;2023-12-20T14:09:24;1.50;;;0.90;;
27367;SDS011;14839;48.106;11.618;2023-12-20T14:11:50;2.83;;;1.20;;
27367;SDS011;14839;48.106;11.618;2023-12-20T14:14:15;3.53;;;1.27;;
27367;SDS011;14839;48.106;11.618;2023-12-20T14:16:41;1.50;;;0.70;;
27367;SDS011;14839;48.106;11.618;2023-12-20T14:19:10;1.70;;;0.83;;
27367;SDS011;14839;48.106;11.618;2023-12-20T14:21:36;2.33;;;0.93;;
27367;SDS011;14839;48.106;11.618;2023-12-20T14:24:01;1.27;;;0.70;;
27367;SDS011;14839;48.106;11.618;2023-12-20T14:26:28;3.00;;;1.10;;
27367;SDS011;14839;48.106;11.618;2023-12-20T14:28:54;1.80;;;1.10;;
27367;SDS011;14839;48.106;11.618;2023-12-20T14:31:20;1.20;;;0.73;;
27367;SDS011;14839;48.106;11.618;2023-12-20T14:33:47;3.30;;;0.90;;
27367;SDS011;14839;48.106;11.618;2023-12-20T14:36:14;3.33;;;0.70;;
27367;SDS011;14839;48.106;11.618;2023-12-20T14:38:39;1.63;;;0.80;;
27367;SDS011;14839;48.106;11.618;2023-12-20T14:41:06;0.97;;;0.53;;
27367;SDS011;14839;48.106;11.618;2023-12-20T14:43:33;3.97;;;0.90;;
27367;SDS011;14839;48.106;11.618;2023-12-20T14:45:59;1.70;;;1.00;;
27367;SDS011;14839;48.106;11.618;2023-12-20T14:48:24;0.87;;;0.70;;
27367;SDS011;14839;48.106;11.618;2023-12-20T14:50:52;1.67;;;1.03;;
27367;SDS011;14839;48.106;11.618;2023-12-20T14:53:18;1.40;;;0.90;;
27367;SDS011;14839;48.106;11.618;2023-12-20T14:55:44;1.00;;;0.70;;
27367;SDS011;14839;48.106;11.618;2023-12-20T14:58:10;3.37;;;0.80;;
27367;SDS011;14839;48.106;11.618;2023-12-20T15:00:35;1.77;;;1.10;;
27367;SDS011;14839;48.106;11.618;2023-12-20T15:03:01;2.20;;;0.70;;
27367;SDS011;14839;48.106;11.618;2023-12-20T15:05:29;0.80;;;0.50;;
27367;SDS011;14839;48.106;11.618;2023-12-20T15:07:54;3.23;;;1.10;;
27367;SDS011;14839;48.106;11.618;2023-12-20T15:10:20;1.80;;;0.80;;
27367;SDS011;14839;48.106;11.618;2023-12-20T15:12:46;0.80;;;0.80;;
27367;SDS011;14839;48.106;11.618;2023-12-20T15:15:11;0.83;;;0.73;;
27367;SDS011;14839;48.106;11.618;2023-12-20T15:17:38;1.47;;;1.00;;
27367;SDS011;14839;48.106;11.618;2023-12-20T15:20:03;3.53;;;1.40;;
27367;SDS011;14839;48.106;11.618;2023-12-20T15:22:29;2.40;;;2.07;;
27367;SDS011;14839;48.106;11.618;2023-12-20T15:24:55;1.73;;;1.30;;
27367;SDS011;14839;48.106;11.618;2023-12-20T15:27:22;0.93;;;0.83;;
27367;SDS011;14839;48.106;11.618;2023-12-20T15:29:47;1.20;;;1.07;;
27367;SDS011;14839;48.106;11.618;2023-12-20T15:32:14;4.93;;;1.33;;
27367;SDS011;14839;48.106;11.618;2023-12-20T15:34:41;1.60;;;0.67;;
27367;SDS011;14839;48.106;11.618;2023-12-20T15:37:06;0.97;;;0.87;;
27367;SDS011;14839;48.106;11.618;2023-12-20T15:39:32;0.70;;;0.50;;
27367;SDS011;14839;48.106;11.618;2023-12-20T15:41:57;0.80;;;0.80;;
27367;SDS011;14839;48.106;11.618;2023-12-20T15:44:26;1.93;;;0.83;;
27367;SDS011;14839;48.106;11.618;2023-12-20T15:46:51;1.27;;;0.87;;
27367;SDS011;14839;48.106;11.618;2023-12-20T15:49:17;0.70;;;0.50;;
27367;SDS011;14839;48.106;11.618;2023-12-20T15:51:44;3.77;;;0.70;;
27367;SDS011;14839;48.106;11.618;2023-12-20T15:54:12;1.30;;;0.97;;
27367;SDS011;14839;48.106;11.618;2023-12-20T15:56:38;1.20;;;0.50;;
27367;SDS011;14839;48.106;11.618;2023-12-20T15:59:06;0.63;;;0.60;;
27367;SDS011;14839;48.106;11.618;2023-12-20T16:01:32;0.80;;;0.70;;
27367;SDS011;14839;48.106;11.618;2023-12-20T16:04:00;1.07;;;0.60;;
27367;SDS011;14839;48.106;11.618;2023-12-20T16:06:26;2.03;;;0.87;;
27367;SDS011;14839;48.106;11.618;2023-12-20T16:08:52;1.33;;;0.70;;
27367;SDS011;14839;48.106;11.618;2023-12-20T16:11:18;1.20;;;0.70;;
27367;SDS011;14839;48.106;11.618;2023-12-20T16:13:43;2.90;;;1.00;;
27367;SDS011;14839;48.106;11.618;2023-12-20T16:16:09;0.53;;;0.50;;
27367;SDS011;14839;48.106;11.618;2023-12-20T16:18:35;0.60;;;0.50;;
27367;SDS011;14839;48.106;11.618;2023-12-20T16:21:00;3.87;;;0.77;;
27367;SDS011;14839;48.106;11.618;2023-12-20T16:23:28;1.07;;;0.70;;
27367;SDS011;14839;48.106;11.618;2023-12-20T16:25:53;1.40;;;0.80;;
27367;SDS011;14839;48.106;11.618;2023-12-20T16:28:19;1.60;;;0.80;;
27367;SDS011;14839;48.106;11.618;2023-12-20T16:30:45;0.73;;;0.40;;
27367;SDS011;14839;48.106;11.618;2023-12-20T16:33:11;1.33;;;0.70;;
27367;SDS011;14839;48.106;11.618;2023-12-20T16:35:37;1.17;;;0.80;;
27367;SDS011;14839;48.106;11.618;2023-12-20T16:38:02;0.63;;;0.40;;
27367;SDS011;14839;48.106;11.618;2023-12-20T16:40:28;1.00;;;0.50;;
27367;SDS011;14839;48.106;11.618;2023-12-20T16:42:54;3.97;;;0.57;;
27367;SDS011;14839;48.106;11.618;2023-12-20T16:45:23;3.43;;;0.63;;
27367;SDS011;14839;48.106;11.618;2023-12-20T16:47:50;0.63;;;0.47;;
27367;SDS011;14839;48.106;11.618;2023-12-20T16:50:16;1.83;;;0.70;;
27367;SDS011;14839;48.106;11.618;2023-12-20T16:52:41;0.90;;;0.80;;
27367;SDS011;14839;48.106;11.618;2023-12-20T16:55:08;3.33;;;0.80;;
27367;SDS011;14839;48.106;11.618;2023-12-20T16:57:35;1.27;;;0.90;;
27367;SDS011;14839;48.106;11.618;2023-12-20T17:00:01;5.40;;;0.97;;
27367;SDS011;14839;48.106;11.618;2023-12-20T17:02:27;0.77;;;0.50;;
27367;SDS011;14839;48.106;11.618;2023-12-20T17:04:53;1.10;;;0.63;;
27367;SDS011;14839;48.106;11.618;2023-12-20T17:07:18;1.20;;;0.63;;
27367;SDS011;14839;48.106;11.618;2023-12-20T17:09:44;0.80;;;0.73;;
27367;SDS011;14839;48.106;11.618;2023-12-20T17:12:11;0.40;;;0.40;;
27367;SDS011;14839;48.106;11.618;2023-12-20T17:14:37;0.90;;;0.70;;
27367;SDS011;14839;48.106;11.618;2023-12-20T17:17:02;2.00;;;0.70;;
27367;SDS011;14839;48.106;11.618;2023-12-20T17:19:29;0.70;;;0.50;;
27367;SDS011;14839;48.106;11.618;2023-12-20T17:21:56;1.13;;;0.60;;
27367;SDS011;14839;48.106;11.618;2023-12-20T17:24:22;0.50;;;0.50;;
27367;SDS011;14839;48.106;11.618;2023-12-20T17:26:48;0.83;;;0.80;;
27367;SDS011;14839;48.106;11.618;2023-12-20T17:29:13;2.43;;;0.60;;
27367;SDS011;14839;48.106;11.618;2023-12-20T17:31:39;1.13;;;0.67;;
27367;SDS011;14839;48.106;11.618;2023-12-20T17:34:07;2.90;;;0.70;;
27367;SDS011;14839;48.106;11.618;2023-12-20T17:36:34;0.90;;;0.70;;
27367;SDS011;14839;48.106;11.618;2023-12-20T17:39:00;0.70;;;0.60;;
27367;SDS011;14839;48.106;11.618;2023-12-20T17:41:25;1.03;;;0.60;;
27367;SDS011;14839;48.106;11.618;2023-12-20T17:43:51;2.80;;;1.00;;
27367;SDS011;14839;48.106;11.618;2023-12-20T17:46:16;0.77;;;0.50;;
27367;SDS011;14839;48.106;11.618;2023-12-20T17:48:42;1.67;;;0.80;;
27367;SDS011;14839;48.106;11.618;2023-12-20T17:51:07;1.67;;;0.67;;
27367;SDS011;14839;48.106;11.618;2023-12-20T17:53:33;0.80;;;0.40;;
27367;SDS011;14839;48.106;11.618;2023-12-20T17:55:58;2.53;;;0.70;;
27367;SDS011;14839;48.106;11.618;2023-12-20T17:58:24;2.43;;;0.77;;
27367;SDS011;14839;48.106;11.618;2023-12-20T18:00:49;0.90;;;0.50;;
27367;SDS011;14839;48.106;11.618;2023-12-20T18:03:15;2.30;;;0.70;;
27367;SDS011;14839;48.106;11.618;2023-12-20T18:05:41;1.33;;;0.60;;
27367;SDS011;14839;48.106;11.618;2023-12-20T18:08:06;0.97;;;0.77;;
27367;SDS011;14839;48.106;11.618;2023-12-20T18:10:32;3.03;;;0.60;;
27367;SDS011;14839;48.106;11.618;2023-12-20T18:12:57;2.27;;;0.70;;
27367;SDS011;14839;48.106;11.618;2023-12-20T18:15:23;7.07;;;0.70;;
27367;SDS011;14839;48.106;11.618;2023-12-20T18:17:49;1.30;;;0.50;;
27367;SDS011;14839;48.106;11.618;2023-12-20T18:20:14;1.97;;;1.00;;
27367;SDS011;14839;48.106;11.618;2023-12-20T18:22:41;2.50;;;0.97;;
27367;SDS011;14839;48.106;11.618;2023-12-20T18:25:07;0.87;;;0.60;;
27367;SDS011;14839;48.106;11.618;2023-12-20T18:27:32;3.73;;;1.23;;
27367;SDS011;14839;48.106;11.618;2023-12-20T18:29:58;1.07;;;0.50;;
27367;SDS011;14839;48.106;11.618;2023-12-20T18:32:30;1.20;;;0.70;;
27367;SDS011;14839;48.106;11.618;2023-12-20T18:34:59;0.97;;;0.47;;
27367;SDS011;14839;48.106;11.618;2023-12-20T18:37:25;0.73;;;0.40;;
27367;SDS011;14839;48.106;11.618;2023-12-20T18:39:52;0.77;;;0.40;;